Time;durP1;ratioP1;P1;durP2;ratioP2;P2;SDS_P1;SDS_P2;PMS_P1;PMS_P2;Temp;Humidity;BMP_temperature;BMP_pressure;BME280_temperature;BME280_humidity;BME280_pressure;Samples;Min_cycle;Max_cycle;Signal;HPM_P1;HPM_P2
2021/01/31 00:02:22;;;;;;;4.80;2.35;;;0.20;99.90;;;;;;5025838;28;20033;-94
2021/01/31 00:04:48;;;;;;;16.08;4.20;;;0.20;99.90;;;;;;5026839;28;20116;-94
2021/01/31 00:07:15;;;;;;;8.30;2.72;;;0.20;99.90;;;;;;5025169;28;20033;-95
2021/01/31 00:09:42;;;;;;;10.65;2.63;;;0.20;99.90;;;;;;5028575;28;20096;-95
2021/01/31 00:12:08;;;;;;;7.38;2.30;;;0.20;99.90;;;;;;5028420;28;20056;-94
2021/01/31 00:14:34;;;;;;;11.65;2.65;;;0.20;99.90;;;;;;5028446;28;20029;-95
2021/01/31 00:17:00;;;;;;;7.68;3.10;;;0.20;99.90;;;;;;5026784;28;20078;-96
2021/01/31 00:19:25;;;;;;;7.45;2.38;;;0.20;99.90;;;;;;5028749;28;20039;-96
2021/01/31 00:21:56;;;;;;;7.57;2.72;;;0.20;99.90;;;;;;5029479;28;20085;-95
2021/01/31 00:24:22;;;;;;;9.55;2.58;;;0.20;99.90;;;;;;5027702;28;20033;-95
2021/01/31 00:26:48;;;;;;;4.53;2.55;;;0.20;99.90;;;;;;5026704;28;20042;-94
2021/01/31 00:29:13;;;;;;;14.55;3.75;;;0.20;99.90;;;;;;5028227;28;20044;-95
2021/01/31 00:31:42;;;;;;;7.75;2.88;;;0.10;99.90;;;;;;5027187;28;20100;-94
2021/01/31 00:34:08;;;;;;;7.25;2.78;;;0.10;99.90;;;;;;5025108;28;20504;-96
2021/01/31 00:36:34;;;;;;;8.35;2.78;;;0.10;99.90;;;;;;5025516;28;20033;-95
2021/01/31 00:39:00;;;;;;;10.77;2.80;;;0.10;99.90;;;;;;5027555;28;20684;-94
2021/01/31 00:41:25;;;;;;;9.82;3.00;;;0.10;99.90;;;;;;5026099;28;20029;-94
2021/01/31 00:43:51;;;;;;;7.57;2.47;;;0.10;99.90;;;;;;5028913;28;20440;-94
2021/01/31 00:46:17;;;;;;;16.17;2.80;;;0.10;99.90;;;;;;5031310;28;20036;-93
2021/01/31 00:48:44;;;;;;;13.82;2.70;;;0.10;99.90;;;;;;5026188;28;20025;-94
2021/01/31 00:51:09;;;;;;;5.22;2.30;;;0.10;99.90;;;;;;5028392;28;20064;-94
2021/01/31 00:53:35;;;;;;;11.43;2.58;;;0.10;99.90;;;;;;5024682;28;20064;-94
2021/01/31 00:56:01;;;;;;;9.85;2.85;;;0.10;99.90;;;;;;5026964;28;20028;-96
2021/01/31 00:58:26;;;;;;;5.60;2.47;;;0.10;99.90;;;;;;5024531;28;20085;-95
2021/01/31 01:00:52;;;;;;;8.02;2.47;;;0.10;99.90;;;;;;5029518;28;20084;-95
2021/01/31 01:03:18;;;;;;;8.77;2.67;;;0.10;99.90;;;;;;5026774;28;20032;-95
2021/01/31 01:05:43;;;;;;;8.48;2.97;;;0.10;99.90;;;;;;5028817;28;20029;-96
2021/01/31 01:08:09;;;;;;;12.52;2.45;;;0.10;99.90;;;;;;5028620;28;20501;-96
2021/01/31 01:10:36;;;;;;;12.98;3.53;;;0.10;99.90;;;;;;5027338;28;20396;-95
2021/01/31 01:13:03;;;;;;;13.57;2.90;;;0.10;99.90;;;;;;5030069;28;20049;-93
2021/01/31 01:15:29;;;;;;;9.93;2.80;;;0.10;99.90;;;;;;5021785;28;20053;-95
2021/01/31 01:17:56;;;;;;;11.88;3.50;;;0.10;99.90;;;;;;5028035;28;20083;-94
2021/01/31 01:20:23;;;;;;;7.85;2.28;;;0.10;99.90;;;;;;5028342;28;20025;-96
2021/01/31 01:22:49;;;;;;;12.13;4.18;;;0.10;99.90;;;;;;5026146;28;20055;-96
2021/01/31 01:25:17;;;;;;;11.15;3.22;;;0.10;99.90;;;;;;5026514;28;20033;-95
2021/01/31 01:27:44;;;;;;;9.45;3.25;;;0.10;99.90;;;;;;5028208;28;20468;-94
2021/01/31 01:30:15;;;;;;;11.55;2.67;;;0.10;99.90;;;;;;5029455;28;20565;-94
2021/01/31 01:32:41;;;;;;;9.85;2.67;;;0.00;99.90;;;;;;5029020;28;20025;-95
2021/01/31 01:35:08;;;;;;;13.32;3.05;;;0.00;99.90;;;;;;5030700;28;20079;-95
2021/01/31 01:37:34;;;;;;;12.38;2.83;;;0.00;99.90;;;;;;5026995;28;20116;-96
2021/01/31 01:40:02;;;;;;;11.68;3.03;;;0.00;99.90;;;;;;5034010;28;20057;-95
2021/01/31 01:42:28;;;;;;;14.52;4.50;;;0.00;99.90;;;;;;5043753;28;20040;-95
2021/01/31 01:44:54;;;;;;;55.03;12.70;;;0.00;99.90;;;;;;5027705;28;20396;-95
2021/01/31 01:47:23;;;;;;;37.58;11.43;;;0.00;99.90;;;;;;5025114;28;20075;-95
2021/01/31 01:49:54;;;;;;;23.60;8.93;;;0.00;99.90;;;;;;5027120;28;20025;-95
2021/01/31 01:52:38;;;;;;;25.95;9.63;;;0.10;99.90;;;;;;5032598;28;20025;-96
2021/01/31 01:55:10;;;;;;;29.20;9.93;;;0.00;99.90;;;;;;5033135;28;20038;-95
2021/01/31 01:57:45;;;;;;;33.92;12.43;;;0.00;99.90;;;;;;5031592;28;20425;-94
2021/01/31 02:00:11;;;;;;;41.97;15.35;;;0.00;99.90;;;;;;5035352;28;20087;-96
2021/01/31 02:02:45;;;;;;;42.38;15.50;;;0.00;99.90;;;;;;5021089;28;20017;-95
2021/01/31 02:05:13;;;;;;;29.45;10.45;;;0.00;99.90;;;;;;5039354;28;20057;-94
2021/01/31 02:07:39;;;;;;;46.97;16.15;;;0.00;99.90;;;;;;5034329;28;20029;-94
2021/01/31 02:10:06;;;;;;;27.88;11.15;;;0.00;99.90;;;;;;5031526;28;20032;-96
2021/01/31 02:12:32;;;;;;;35.92;12.70;;;0.00;99.90;;;;;;5028512;28;20049;-94
2021/01/31 02:15:00;;;;;;;40.35;15.38;;;0.10;99.90;;;;;;5029204;28;20084;-96
2021/01/31 02:17:29;;;;;;;46.63;14.60;;;0.00;99.90;;;;;;5023946;28;20021;-94
2021/01/31 02:20:29;;;;;;;47.92;17.65;;;0.00;99.90;;;;;;5024691;28;20112;-94
2021/01/31 02:23:15;;;;;;;65.95;24.20;;;0.00;99.90;;;;;;5030705;28;20025;-95
2021/01/31 02:26:16;;;;;;;47.33;19.13;;;0.00;99.90;;;;;;5023610;28;20484;-96
2021/01/31 02:29:07;;;;;;;62.63;22.75;;;0.00;99.90;;;;;;4977004;28;20077;-95
2021/01/31 02:31:36;;;;;;;52.05;21.48;;;0.00;99.90;;;;;;4972634;28;20042;-94
2021/01/31 02:34:07;;;;;;;42.40;17.80;;;0.00;99.90;;;;;;4985313;28;20124;-93
2021/01/31 02:36:51;;;;;;;32.95;15.65;;;0.00;99.90;;;;;;4966657;28;20161;-94
2021/01/31 02:39:51;;;;;;;43.42;15.80;;;0.00;99.90;;;;;;4977594;28;20041;-95
2021/01/31 02:42:23;;;;;;;32.15;14.35;;;0.00;99.90;;;;;;4986045;28;20042;-95
2021/01/31 02:45:00;;;;;;;30.10;12.88;;;0.00;99.90;;;;;;4977979;28;20025;-95
2021/01/31 02:47:27;;;;;;;37.28;12.00;;;-0.10;99.90;;;;;;4978394;28;20030;-94
2021/01/31 02:49:58;;;;;;;29.48;12.55;;;-0.10;99.90;;;;;;4970736;28;20022;-95
2021/01/31 02:52:42;;;;;;;27.67;11.70;;;-0.10;99.90;;;;;;4975105;28;20042;-96
2021/01/31 02:55:19;;;;;;;22.13;7.97;;;-0.10;99.90;;;;;;4987318;28;20204;-94
2021/01/31 02:58:06;;;;;;;22.40;10.93;;;-0.10;99.90;;;;;;4989037;28;20034;-93
2021/01/31 03:00:56;;;;;;;18.58;6.43;;;-0.10;99.90;;;;;;4989270;28;20030;-93
2021/01/31 03:03:36;;;;;;;17.25;5.68;;;-0.20;99.90;;;;;;4976456;28;20027;-95
2021/01/31 03:06:05;;;;;;;11.38;4.78;;;-0.20;99.90;;;;;;5043675;28;20071;-94
2021/01/31 03:08:42;;;;;;;16.65;5.93;;;-0.20;99.90;;;;;;5025885;28;20038;-95
2021/01/31 03:11:12;;;;;;;15.68;5.20;;;-0.20;99.90;;;;;;5047397;28;20026;-96
2021/01/31 03:13:56;;;;;;;14.90;5.28;;;-0.20;99.90;;;;;;5027440;28;20063;-95
2021/01/31 03:16:29;;;;;;;16.92;5.68;;;-0.20;99.90;;;;;;5029466;28;20013;-95
2021/01/31 03:19:07;;;;;;;21.98;5.70;;;-0.20;99.90;;;;;;5025676;28;20106;-95
2021/01/31 03:21:36;;;;;;;18.65;5.80;;;-0.20;99.90;;;;;;5049674;28;20022;-95
2021/01/31 03:24:26;;;;;;;17.73;7.40;;;-0.20;99.90;;;;;;5029229;28;20021;-95
2021/01/31 03:27:12;;;;;;;21.42;6.40;;;-0.30;99.90;;;;;;5029380;28;20064;-95
2021/01/31 03:29:39;;;;;;;13.90;6.60;;;-0.30;99.90;;;;;;5036882;28;20124;-95
2021/01/31 03:32:16;;;;;;;15.32;4.22;;;-0.30;99.90;;;;;;5029526;28;20073;-95
2021/01/31 03:35:07;;;;;;;16.38;5.18;;;-0.30;99.90;;;;;;5026267;28;20025;-94
2021/01/31 03:37:50;;;;;;;11.13;4.72;;;-0.30;99.90;;;;;;5036208;28;20025;-94
2021/01/31 03:40:17;;;;;;;9.23;3.97;;;-0.40;99.90;;;;;;5030422;28;20028;-94
2021/01/31 03:42:44;;;;;;;12.13;3.70;;;-0.40;99.90;;;;;;5026073;28;20056;-94
2021/01/31 03:45:12;;;;;;;9.25;4.03;;;-0.40;99.90;;;;;;5027115;28;20036;-94
2021/01/31 03:47:49;;;;;;;8.93;4.60;;;-0.40;99.90;;;;;;5027428;28;20026;-94
2021/01/31 03:50:15;;;;;;;14.07;4.75;;;-0.40;99.90;;;;;;5026978;28;20026;-95
2021/01/31 03:52:41;;;;;;;10.52;4.22;;;-0.40;99.90;;;;;;5025829;28;20121;-95
2021/01/31 03:55:07;;;;;;;13.45;4.30;;;-0.40;99.90;;;;;;5025642;28;20029;-94
2021/01/31 03:57:44;;;;;;;16.65;4.50;;;-0.40;99.90;;;;;;5029373;28;20040;-95
2021/01/31 04:00:16;;;;;;;13.63;3.67;;;-0.40;99.90;;;;;;5034486;28;20075;-94
2021/01/31 04:02:51;;;;;;;11.27;3.83;;;-0.40;99.90;;;;;;5025171;28;20091;-96
2021/01/31 04:05:18;;;;;;;10.13;3.92;;;-0.40;99.90;;;;;;5028953;28;20051;-95
2021/01/31 04:07:47;;;;;;;13.45;3.70;;;-0.40;99.90;;;;;;5027535;28;20029;-95
2021/01/31 04:10:14;;;;;;;10.38;3.17;;;-0.40;99.90;;;;;;5024724;28;20025;-94
2021/01/31 04:12:48;;;;;;;10.45;3.75;;;-0.30;99.90;;;;;;5028516;28;20049;-95
2021/01/31 04:15:28;;;;;;;11.77;3.80;;;-0.40;99.90;;;;;;5028359;28;20032;-94
2021/01/31 04:17:53;;;;;;;8.32;3.25;;;-0.30;99.90;;;;;;5047672;28;20021;-96
2021/01/31 04:20:19;;;;;;;10.70;4.05;;;-0.30;99.90;;;;;;5028852;28;20029;-96
2021/01/31 04:22:45;;;;;;;16.08;5.25;;;-0.30;99.90;;;;;;5025932;28;20025;-94
2021/01/31 04:25:11;;;;;;;9.50;3.65;;;-0.30;99.90;;;;;;5026888;28;20025;-95
2021/01/31 04:27:37;;;;;;;14.13;3.45;;;-0.40;99.90;;;;;;5029238;28;20029;-93
2021/01/31 04:30:05;;;;;;;11.23;3.63;;;-0.30;99.90;;;;;;5024726;28;20456;-94
2021/01/31 04:32:31;;;;;;;9.60;3.40;;;-0.30;99.90;;;;;;5023742;28;20393;-95
2021/01/31 04:34:57;;;;;;;10.00;3.67;;;-0.40;99.90;;;;;;5026789;28;20060;-94
2021/01/31 04:37:23;;;;;;;8.93;3.72;;;-0.40;99.90;;;;;;5027042;28;20048;-95
2021/01/31 04:39:49;;;;;;;13.48;3.72;;;-0.40;99.90;;;;;;5024306;28;20048;-96
2021/01/31 04:42:18;;;;;;;10.13;3.65;;;-0.40;99.90;;;;;;5024336;28;20067;-95
2021/01/31 04:44:44;;;;;;;11.82;3.38;;;-0.40;99.90;;;;;;5024408;28;20018;-94
2021/01/31 04:47:27;;;;;;;7.57;3.60;;;-0.40;99.90;;;;;;5026024;28;20480;-94
2021/01/31 04:50:11;;;;;;;10.65;3.63;;;-0.40;99.90;;;;;;5027953;28;20025;-96
2021/01/31 04:52:44;;;;;;;8.20;3.88;;;-0.40;99.90;;;;;;5025713;28;20495;-93
2021/01/31 04:55:49;;;;;;;9.73;3.63;;;-0.40;99.90;;;;;;5041050;28;20033;-95
2021/01/31 04:58:16;;;;;;;17.23;3.88;;;-0.50;99.90;;;;;;5029814;28;20036;-95
2021/01/31 05:01:10;;;;;;;14.85;3.60;;;-0.50;99.90;;;;;;5027134;28;20047;-94
2021/01/31 05:03:52;;;;;;;11.48;3.40;;;-0.40;99.90;;;;;;5010158;28;20021;-94
2021/01/31 05:06:19;;;;;;;8.40;3.63;;;-0.40;99.90;;;;;;5025933;28;20033;-94
2021/01/31 05:08:49;;;;;;;10.75;4.03;;;-0.40;99.90;;;;;;5033172;28;20112;-95
2021/01/31 05:11:20;;;;;;;14.55;4.10;;;-0.40;99.90;;;;;;5027214;28;20129;-93
2021/01/31 05:14:11;;;;;;;15.95;3.63;;;-0.40;99.90;;;;;;5024843;28;20425;-94
2021/01/31 05:16:37;;;;;;;6.13;3.33;;;-0.40;99.90;;;;;;5030043;28;20542;-94
2021/01/31 05:19:06;;;;;;;13.20;3.53;;;-0.40;99.90;;;;;;5025074;28;20112;-95
2021/01/31 05:21:34;;;;;;;7.63;4.03;;;-0.40;99.90;;;;;;5027337;28;20035;-95
2021/01/31 05:24:04;;;;;;;10.10;3.15;;;-0.40;99.90;;;;;;5026580;28;20522;-95
2021/01/31 05:26:40;;;;;;;14.95;4.00;;;-0.30;99.90;;;;;;5023129;28;20092;-96
2021/01/31 05:29:12;;;;;;;11.40;3.58;;;-0.30;99.90;;;;;;5023249;28;20112;-95
2021/01/31 05:31:40;;;;;;;9.57;3.42;;;-0.30;99.90;;;;;;5026254;28;20124;-94
2021/01/31 05:34:06;;;;;;;10.77;3.15;;;-0.30;99.90;;;;;;5026345;28;20124;-95
2021/01/31 05:36:33;;;;;;;12.27;3.90;;;-0.30;99.90;;;;;;5027714;28;20048;-96
2021/01/31 05:39:00;;;;;;;8.88;3.80;;;-0.30;99.90;;;;;;5024943;28;20032;-94
2021/01/31 05:41:37;;;;;;;10.52;4.28;;;-0.30;99.90;;;;;;5024667;28;20029;-95
2021/01/31 05:44:15;;;;;;;10.15;4.30;;;-0.30;99.90;;;;;;5025205;28;20026;-95
2021/01/31 05:46:50;;;;;;;7.68;4.13;;;-0.40;99.90;;;;;;5025581;28;20033;-95
2021/01/31 05:49:39;;;;;;;10.52;3.63;;;-0.40;99.90;;;;;;5026793;28;20128;-96
2021/01/31 05:52:18;;;;;;;7.93;3.63;;;-0.40;99.90;;;;;;5031385;28;20039;-94
2021/01/31 05:54:45;;;;;;;12.93;4.00;;;-0.40;99.90;;;;;;5026978;28;20036;-94
2021/01/31 05:57:40;;;;;;;9.48;3.70;;;-0.40;99.90;;;;;;5024812;28;20032;-96
2021/01/31 06:00:18;;;;;;;12.98;3.38;;;-0.40;99.90;;;;;;5004151;28;20033;-95
2021/01/31 06:03:04;;;;;;;10.07;4.25;;;-0.30;99.90;;;;;;5028462;28;20033;-95
2021/01/31 06:05:30;;;;;;;7.57;3.30;;;-0.40;99.90;;;;;;5028210;28;20560;-95
2021/01/31 06:08:09;;;;;;;12.20;4.07;;;-0.40;99.90;;;;;;5022656;28;20036;-94
2021/01/31 06:10:40;;;;;;;14.32;3.90;;;-0.30;99.90;;;;;;5031511;28;20025;-95
2021/01/31 06:13:20;;;;;;;;;;;-0.30;99.90;;;;;;5020706;28;20049;-93
2021/01/31 06:15:55;;;;;;;8.40;3.60;;;-0.30;99.90;;;;;;5043474;28;19912;-95
2021/01/31 06:18:46;;;;;;;9.45;3.83;;;-0.30;99.90;;;;;;5033557;28;20033;-92
2021/01/31 06:21:15;;;;;;;15.90;5.10;;;-0.30;99.90;;;;;;5036792;28;20117;-95
2021/01/31 06:23:42;;;;;;;11.48;3.75;;;-0.30;99.90;;;;;;5028314;28;20041;-94
2021/01/31 06:26:27;;;;;;;12.85;3.83;;;-0.30;99.90;;;;;;5034353;28;20197;-94
2021/01/31 06:29:09;;;;;;;10.20;4.00;;;-0.20;99.90;;;;;;5043383;28;20025;-94
2021/01/31 06:31:39;;;;;;;10.98;3.88;;;-0.30;99.90;;;;;;5018852;28;20121;-93
2021/01/31 06:34:05;;;;;;;9.50;3.67;;;-0.30;99.90;;;;;;5018674;28;20079;-94
2021/01/31 06:36:42;;;;;;;14.40;4.57;;;-0.30;99.90;;;;;;5029273;28;20025;-94
2021/01/31 06:39:27;;;;;;;11.68;3.97;;;-0.30;99.90;;;;;;5028166;28;20037;-93
2021/01/31 06:42:14;;;;;;;7.78;3.50;;;-0.30;99.90;;;;;;5034518;28;20033;-95
2021/01/31 06:44:53;;;;;;;10.32;3.10;;;-0.30;99.90;;;;;;5035839;28;20025;-95
2021/01/31 06:47:50;;;;;;;12.70;3.85;;;-0.30;99.90;;;;;;5035756;28;20453;-92
2021/01/31 06:50:21;;;;;;;10.10;4.40;;;-0.30;99.90;;;;;;5034649;28;20360;-95
2021/01/31 06:52:57;;;;;;;9.75;3.40;;;-0.30;99.90;;;;;;5025556;28;20053;-94
2021/01/31 06:55:41;;;;;;;10.68;3.33;;;-0.30;99.90;;;;;;5018797;28;20037;-94
2021/01/31 06:58:28;;;;;;;10.07;3.50;;;-0.30;99.90;;;;;;5033872;28;20060;-94
2021/01/31 07:01:05;;;;;;;6.72;3.20;;;-0.30;99.90;;;;;;5031815;28;20022;-95
2021/01/31 07:04:11;;;;;;;5.43;3.03;;;-0.30;99.90;;;;;;5034625;28;20483;-94
2021/01/31 07:07:02;;;;;;;10.07;4.00;;;-0.40;99.90;;;;;;5020674;28;20022;-93
2021/01/31 07:09:36;;;;;;;8.82;3.30;;;-0.40;99.90;;;;;;5045165;28;20468;-93
2021/01/31 07:12:31;;;;;;;9.38;3.55;;;-0.40;99.90;;;;;;5017296;28;20045;-95
2021/01/31 07:15:02;;;;;;;11.45;3.90;;;-0.30;99.90;;;;;;5024326;28;20033;-93
2021/01/31 07:17:51;;;;;;;15.63;3.53;;;-0.30;99.90;;;;;;5029532;28;20031;-96
2021/01/31 07:20:24;;;;;;;10.02;3.13;;;-0.40;99.90;;;;;;5023255;28;20025;-93
2021/01/31 07:23:11;;;;;;;8.80;3.28;;;-0.30;99.90;;;;;;5026490;28;20017;-93
2021/01/31 07:25:52;;;;;;;6.32;2.95;;;-0.40;99.90;;;;;;5023981;28;20428;-95
2021/01/31 07:28:27;;;;;;;11.27;3.17;;;-0.40;99.90;;;;;;5028779;28;20021;-94
2021/01/31 07:31:02;;;;;;;7.85;2.80;;;-0.40;99.90;;;;;;5052255;28;20064;-95
2021/01/31 07:33:32;;;;;;;10.18;2.55;;;-0.40;99.90;;;;;;5027238;28;20119;-94
2021/01/31 07:36:17;;;;;;;8.67;2.80;;;-0.40;99.90;;;;;;5028470;28;20079;-95
2021/01/31 07:39:09;;;;;;;7.43;2.72;;;-0.40;99.90;;;;;;5025773;28;20092;-95
2021/01/31 07:41:49;;;;;;;10.82;3.05;;;-0.40;99.90;;;;;;5026761;28;20473;-96
2021/01/31 07:44:18;;;;;;;6.28;2.58;;;-0.40;99.90;;;;;;5035484;28;20089;-94
2021/01/31 07:46:43;;;;;;;11.23;2.88;;;-0.40;99.90;;;;;;5027315;28;20037;-94
2021/01/31 07:49:09;;;;;;;8.20;2.17;;;-0.40;99.90;;;;;;5028330;28;20033;-96
2021/01/31 07:51:38;;;;;;;6.32;2.10;;;-0.40;99.90;;;;;;5026730;28;20036;-95
2021/01/31 07:54:31;;;;;;;10.93;3.50;;;-0.40;99.90;;;;;;5025599;28;20037;-93
2021/01/31 07:57:34;;;;;;;4.40;2.47;;;-0.40;99.90;;;;;;5028507;28;20021;-94
2021/01/31 08:00:10;;;;;;;8.45;2.28;;;-0.30;99.90;;;;;;5026367;28;20037;-92
2021/01/31 08:02:40;;;;;;;10.82;2.80;;;-0.30;99.90;;;;;;5026273;28;20484;-92
2021/01/31 08:05:10;;;;;;;8.88;2.83;;;-0.30;99.90;;;;;;5042451;28;20052;-93
2021/01/31 08:08:34;;;;;;;5.07;2.28;;;-0.30;99.90;;;;;;5034507;28;20017;-94
2021/01/31 08:11:00;;;;;;;11.05;2.40;;;-0.30;99.90;;;;;;4946257;28;20034;-93
2021/01/31 08:13:47;;;;;;;5.47;2.50;;;-0.20;99.90;;;;;;4958375;28;20126;-94
2021/01/31 08:16:47;;;;;;;10.88;2.97;;;-0.20;99.90;;;;;;4964131;28;20521;-94
2021/01/31 08:19:18;;;;;;;8.95;2.85;;;-0.20;99.90;;;;;;4954128;28;20051;-93
2021/01/31 08:21:49;;;;;;;4.63;2.40;;;-0.20;99.90;;;;;;4954290;28;20069;-95
2021/01/31 08:24:35;;;;;;;;;;;-0.10;99.90;;;;;;4955378;28;20070;-94
2021/01/31 08:27:00;;;;;;;5.53;2.28;;;-0.10;99.90;;;;;;4948461;28;19957;-94
2021/01/31 08:29:28;;;;;;;6.70;2.47;;;-0.10;99.90;;;;;;4948611;28;20494;-94
2021/01/31 08:32:06;;;;;;;5.55;2.40;;;0.00;99.90;;;;;;4965690;28;20502;-95
2021/01/31 08:35:16;;;;;;;6.65;2.88;;;0.00;99.90;;;;;;4965337;28;20510;-92
2021/01/31 08:37:42;;;;;;;8.77;2.58;;;0.00;99.90;;;;;;4961744;28;20026;-95
2021/01/31 08:40:16;;;;;;;14.52;2.50;;;0.00;99.90;;;;;;4962548;28;20050;-94
2021/01/31 08:42:51;;;;;;;10.95;3.22;;;0.00;99.90;;;;;;5024473;28;20041;-95
2021/01/31 08:45:16;;;;;;;8.70;2.67;;;0.10;99.90;;;;;;5023523;28;20035;-93
2021/01/31 08:47:42;;;;;;;6.28;2.88;;;0.10;99.90;;;;;;5024980;28;20112;-95
2021/01/31 08:50:09;;;;;;;13.48;3.60;;;0.10;99.90;;;;;;5027183;28;20029;-94
2021/01/31 08:52:36;;;;;;;7.88;2.58;;;0.20;99.90;;;;;;5012535;28;20411;-95
2021/01/31 08:55:08;;;;;;;7.75;2.70;;;0.20;99.90;;;;;;5025141;28;20046;-95
2021/01/31 08:57:34;;;;;;;9.40;2.42;;;0.20;99.90;;;;;;5023981;28;20068;-94
2021/01/31 09:00:06;;;;;;;7.82;2.67;;;0.20;99.90;;;;;;5025967;28;20025;-94
2021/01/31 09:02:34;;;;;;;6.13;2.50;;;0.30;99.90;;;;;;5031458;28;20026;-94
2021/01/31 09:05:11;;;;;;;9.35;3.20;;;0.30;99.90;;;;;;5024098;28;20492;-95
2021/01/31 09:07:40;;;;;;;5.50;2.58;;;0.30;99.90;;;;;;5029286;28;20020;-95
2021/01/31 09:10:12;;;;;;;12.93;2.85;;;0.40;99.90;;;;;;5019837;28;20025;-96
2021/01/31 09:12:38;;;;;;;8.93;3.35;;;0.40;99.90;;;;;;5023293;28;20064;-94
2021/01/31 09:15:06;;;;;;;7.47;2.47;;;0.40;99.90;;;;;;5034188;28;20029;-95
2021/01/31 09:17:32;;;;;;;10.82;2.78;;;0.50;99.90;;;;;;5036641;28;20029;-95
2021/01/31 09:20:28;;;;;;;9.05;2.70;;;0.50;99.90;;;;;;5035699;28;20029;-95
2021/01/31 09:22:58;;;;;;;7.13;2.67;;;0.60;99.90;;;;;;5045857;28;20060;-95
2021/01/31 09:25:25;;;;;;;7.95;2.20;;;0.60;99.90;;;;;;5063407;28;20025;-95
2021/01/31 09:28:00;;;;;;;10.88;2.60;;;0.60;99.90;;;;;;5047470;28;20022;-94
2021/01/31 09:30:27;;;;;;;9.40;2.28;;;0.70;99.90;;;;;;5034348;28;20112;-95
2021/01/31 09:33:01;;;;;;;5.38;2.60;;;0.70;99.90;;;;;;5035069;28;20033;-96
2021/01/31 09:35:31;;;;;;;6.95;1.92;;;0.70;99.90;;;;;;5029632;28;20101;-95
2021/01/31 09:38:34;;;;;;;12.17;2.67;;;0.80;99.90;;;;;;5026722;28;20025;-95
2021/01/31 09:41:01;;;;;;;6.78;2.50;;;0.80;99.90;;;;;;5029023;28;20052;-94
2021/01/31 09:43:36;;;;;;;8.75;2.00;;;0.90;99.90;;;;;;5033343;28;20033;-95
2021/01/31 09:46:07;;;;;;;6.30;2.00;;;0.90;99.90;;;;;;5028143;28;20052;-94
2021/01/31 09:48:34;;;;;;;12.45;2.28;;;1.00;99.90;;;;;;5021971;28;20085;-95
2021/01/31 09:51:02;;;;;;;3.88;2.13;;;0.90;99.90;;;;;;5036892;28;20021;-95
2021/01/31 09:53:37;;;;;;;3.50;2.03;;;1.00;99.90;;;;;;5032206;28;20128;-95
2021/01/31 09:56:06;;;;;;;10.05;2.13;;;0.90;99.90;;;;;;5030167;28;20036;-95
2021/01/31 09:58:42;;;;;;;9.85;1.95;;;1.00;99.90;;;;;;5028967;28;20415;-96
2021/01/31 10:01:13;;;;;;;9.20;2.45;;;1.00;99.90;;;;;;5025598;28;20025;-95
2021/01/31 10:03:39;;;;;;;7.40;2.22;;;0.90;99.90;;;;;;5029859;28;20033;-95
2021/01/31 10:06:19;;;;;;;7.57;1.92;;;1.00;99.90;;;;;;5031869;28;20480;-96
2021/01/31 10:09:02;;;;;;;4.25;2.25;;;1.00;99.90;;;;;;5039869;28;20083;-94
2021/01/31 10:11:45;;;;;;;3.20;1.65;;;1.00;99.90;;;;;;5037785;28;20044;-95
2021/01/31 10:14:40;;;;;;;7.78;2.20;;;1.00;99.90;;;;;;5020003;28;20048;-96
2021/01/31 10:17:40;;;;;;;7.15;2.05;;;1.10;99.90;;;;;;5024749;28;20043;-96
2021/01/31 10:20:28;;;;;;;3.15;1.65;;;1.10;99.90;;;;;;5025428;28;20022;-95
2021/01/31 10:23:15;;;;;;;10.13;2.05;;;1.10;99.90;;;;;;5017621;28;20068;-96
2021/01/31 10:25:55;;;;;;;6.63;2.00;;;1.10;99.90;;;;;;5023442;28;20044;-94
2021/01/31 10:28:37;;;;;;;6.72;1.70;;;1.10;99.90;;;;;;5021341;28;20107;-95
2021/01/31 10:31:04;;;;;;;9.50;2.38;;;1.20;99.90;;;;;;5022142;28;20041;-95
2021/01/31 10:33:39;;;;;;;5.55;2.15;;;1.20;99.90;;;;;;5019606;28;20034;-95
2021/01/31 10:36:26;;;;;;;5.43;1.70;;;1.20;99.90;;;;;;5018284;28;20168;-95
2021/01/31 10:38:54;;;;;;;7.75;2.00;;;1.20;99.90;;;;;;5018425;28;20029;-95
2021/01/31 10:41:20;;;;;;;5.47;1.55;;;1.20;99.90;;;;;;5017919;28;20079;-95
2021/01/31 10:44:03;;;;;;;8.20;1.88;;;1.30;99.90;;;;;;5018597;28;20277;-94
2021/01/31 10:46:31;;;;;;;6.53;1.65;;;1.30;99.90;;;;;;5017203;28;20042;-92
2021/01/31 10:48:59;;;;;;;11.38;1.85;;;1.30;99.90;;;;;;5016954;28;20192;-95
2021/01/31 10:51:32;;;;;;;9.00;2.85;;;1.30;99.90;;;;;;5015925;28;20029;-95
2021/01/31 10:53:58;;;;;;;5.78;1.95;;;1.30;99.90;;;;;;5012404;28;20035;-94
2021/01/31 10:56:24;;;;;;;11.55;3.58;;;1.30;99.90;;;;;;5008139;28;20095;-94
2021/01/31 10:58:50;;;;;;;9.25;2.17;;;1.30;99.90;;;;;;5015422;28;20430;-93
2021/01/31 11:01:20;;;;;;;3.28;1.85;;;1.30;99.90;;;;;;5014018;28;20034;-95
2021/01/31 11:03:49;;;;;;;5.00;2.15;;;1.30;99.90;;;;;;5013248;28;20290;-95
2021/01/31 11:06:47;;;;;;;9.15;2.25;;;1.30;99.90;;;;;;5047319;23;20030;31
2021/01/31 11:09:18;;;;;;;7.70;2.30;;;1.40;99.90;;;;;;4963856;28;20043;-95
2021/01/31 11:11:44;;;;;;;6.55;2.00;;;1.40;99.90;;;;;;4954000;28;20050;-93
2021/01/31 11:14:10;;;;;;;5.43;1.92;;;1.40;99.90;;;;;;4948574;29;20047;-95
2021/01/31 11:16:36;;;;;;;7.20;2.42;;;1.40;99.90;;;;;;5151279;23;20037;-94
2021/01/31 11:19:01;;;;;;;6.95;2.33;;;1.50;99.90;;;;;;5032296;28;20477;-93
2021/01/31 11:21:27;;;;;;;7.72;2.28;;;1.50;99.90;;;;;;5030522;28;20032;-93
2021/01/31 11:23:54;;;;;;;5.65;2.40;;;1.60;99.90;;;;;;5029859;28;20108;-92
2021/01/31 11:26:22;;;;;;;9.27;2.70;;;1.60;99.90;;;;;;5026675;28;20037;-94
2021/01/31 11:28:48;;;;;;;6.90;2.22;;;1.60;99.90;;;;;;5025814;28;20030;-93
2021/01/31 11:31:14;;;;;;;8.55;2.63;;;1.70;99.90;;;;;;5027650;28;20021;-92
2021/01/31 11:33:39;;;;;;;6.65;2.47;;;1.70;99.90;;;;;;5028464;28;20128;-93
2021/01/31 11:36:06;;;;;;;7.60;2.30;;;1.80;99.90;;;;;;5028836;28;20161;-94
2021/01/31 11:38:32;;;;;;;9.07;2.88;;;1.80;99.90;;;;;;5045818;28;20041;-96
2021/01/31 11:40:58;;;;;;;6.38;2.67;;;1.80;99.90;;;;;;5027111;28;20020;-94
2021/01/31 11:43:24;;;;;;;5.93;2.20;;;1.80;99.90;;;;;;5026462;28;20040;-92
2021/01/31 11:45:50;;;;;;;7.10;2.30;;;1.90;99.90;;;;;;5026350;28;20025;-91
2021/01/31 11:48:15;;;;;;;5.55;2.00;;;1.90;99.90;;;;;;5037078;28;20111;-94
2021/01/31 11:50:41;;;;;;;8.32;2.20;;;2.00;99.90;;;;;;5025181;28;20017;-93
2021/01/31 11:53:07;;;;;;;5.28;2.33;;;1.90;99.90;;;;;;5028504;28;20040;-94
2021/01/31 11:55:33;;;;;;;7.18;2.30;;;1.90;99.90;;;;;;5027775;28;20138;-93
2021/01/31 11:57:58;;;;;;;15.82;2.35;;;1.90;99.90;;;;;;5026864;28;20023;-94
2021/01/31 12:00:24;;;;;;;6.30;2.20;;;1.90;99.90;;;;;;5023615;28;20091;-92
2021/01/31 12:02:50;;;;;;;3.83;2.05;;;1.90;99.90;;;;;;5022194;28;20033;-92
2021/01/31 12:05:18;;;;;;;8.82;2.60;;;1.90;99.90;;;;;;5023749;28;20609;-91
2021/01/31 12:07:44;;;;;;;5.45;2.20;;;1.90;99.90;;;;;;5024933;28;20036;-92
2021/01/31 12:10:12;;;;;;;8.75;2.50;;;1.90;99.90;;;;;;5030105;28;20021;-93
2021/01/31 12:12:38;;;;;;;8.25;2.10;;;1.80;99.90;;;;;;5016179;28;20120;-93
2021/01/31 12:15:06;;;;;;;6.68;2.15;;;1.80;99.90;;;;;;5004403;28;20133;-94
2021/01/31 12:17:34;;;;;;;4.07;1.85;;;1.80;99.90;;;;;;5011551;28;20061;-92
2021/01/31 12:20:00;;;;;;;6.97;2.45;;;1.80;99.90;;;;;;5010329;28;20099;-94
2021/01/31 12:22:26;;;;;;;8.95;2.22;;;1.90;99.90;;;;;;5007957;28;20041;-93
2021/01/31 12:24:52;;;;;;;6.68;2.45;;;1.90;99.90;;;;;;5009984;28;20050;-92
2021/01/31 12:27:23;;;;;;;7.70;2.63;;;1.90;99.90;;;;;;5008274;28;20456;-92
2021/01/31 12:29:49;;;;;;;7.80;3.42;;;1.90;99.90;;;;;;5008168;28;20098;-92
2021/01/31 12:32:15;;;;;;;5.63;2.28;;;1.90;99.90;;;;;;5006732;28;20033;-92
2021/01/31 12:34:41;;;;;;;5.38;2.10;;;2.00;99.90;;;;;;5002623;28;20037;-92
2021/01/31 12:37:06;;;;;;;7.72;2.35;;;2.00;99.90;;;;;;5001806;28;20469;-92
2021/01/31 12:39:32;;;;;;;8.95;2.30;;;1.90;99.90;;;;;;5004006;28;20022;-92
2021/01/31 12:41:58;;;;;;;7.00;2.10;;;2.00;99.90;;;;;;5005111;28;20018;-91
2021/01/31 12:44:23;;;;;;;8.20;2.38;;;1.90;99.90;;;;;;5005101;28;20064;-92
2021/01/31 12:46:49;;;;;;;7.55;2.90;;;2.00;99.90;;;;;;5005379;28;20378;-91
2021/01/31 12:49:15;;;;;;;5.80;2.25;;;2.00;99.90;;;;;;5005041;28;20048;-91
2021/01/31 12:51:40;;;;;;;7.07;2.22;;;2.00;99.90;;;;;;5004746;28;20034;-91
2021/01/31 12:54:06;;;;;;;5.45;2.83;;;2.00;99.90;;;;;;5003927;28;20473;-91
2021/01/31 12:56:32;;;;;;;7.13;2.20;;;2.00;99.90;;;;;;5003896;28;20026;-91
2021/01/31 12:58:57;;;;;;;9.65;2.20;;;2.00;99.90;;;;;;5008265;28;20026;-93
2021/01/31 13:01:24;;;;;;;5.72;1.90;;;2.00;99.90;;;;;;5009893;28;20022;-90
2021/01/31 13:03:49;;;;;;;4.57;2.20;;;2.00;99.90;;;;;;5005761;28;20080;-91
2021/01/31 13:06:15;;;;;;;6.13;2.05;;;2.10;99.90;;;;;;5011992;28;20033;-92
2021/01/31 13:08:41;;;;;;;8.65;2.35;;;2.10;99.90;;;;;;5010763;28;20022;-92
2021/01/31 13:11:06;;;;;;;7.95;2.45;;;2.10;99.90;;;;;;5017981;28;20492;-91
2021/01/31 13:13:32;;;;;;;6.60;2.75;;;2.10;99.90;;;;;;5013396;28;20405;-91
2021/01/31 13:15:58;;;;;;;6.43;2.00;;;2.10;99.90;;;;;;5012664;28;20028;-91
2021/01/31 13:18:23;;;;;;;6.80;2.45;;;2.20;99.90;;;;;;5006643;28;20519;-91